createdAt,value
2019-05-17T00:03:36.552Z,13.47
2019-05-17T00:08:47.404Z,13.90
2019-05-17T00:13:53.686Z,12.97
2019-05-17T00:18:59.307Z,13.67
2019-05-17T00:24:06.722Z,14.50
2019-05-17T00:29:11.997Z,13.97
2019-05-17T00:34:17.598Z,13.70
2019-05-17T00:39:23.932Z,13.50
2019-05-17T00:44:29.088Z,13.23
2019-05-17T00:49:33.914Z,13.37
2019-05-17T00:54:40.148Z,13.67
2019-05-17T00:59:47.368Z,14.17
2019-05-17T01:04:51.935Z,14.07
2019-05-17T01:09:58.778Z,13.87
2019-05-17T01:15:04.729Z,13.40
2019-05-17T01:20:10.433Z,13.53
2019-05-17T01:25:17.182Z,14.43
2019-05-17T01:30:22.393Z,13.60
2019-05-17T01:35:27.904Z,13.80
2019-05-17T01:40:32.682Z,13.47
2019-05-17T01:45:38.776Z,14.87
2019-05-17T01:50:46.493Z,14.40
2019-05-17T01:55:53.452Z,14.03
2019-05-17T02:00:58.821Z,15.30
2019-05-17T02:06:07.489Z,13.83
2019-05-17T02:11:12.725Z,14.53
2019-05-17T02:16:19.560Z,13.77
2019-05-17T02:21:27.311Z,15.27
2019-05-17T02:26:32.449Z,13.50
2019-05-17T02:31:39.173Z,14.50
2019-05-17T02:36:45.915Z,13.60
2019-05-17T02:41:53.280Z,13.20
2019-05-17T02:46:59.145Z,13.33
2019-05-17T02:52:04.986Z,13.13
2019-05-17T02:57:14.199Z,12.97
2019-05-17T03:02:24.176Z,12.30
2019-05-17T03:07:26.882Z,13.77
2019-05-17T03:12:33.097Z,13.77
2019-05-17T03:17:43.530Z,13.60
2019-05-17T03:22:52.590Z,13.40
2019-05-17T03:28:02.904Z,13.80
2019-05-17T03:33:08.297Z,12.93
2019-05-17T03:38:15.694Z,13.00
2019-05-17T03:43:22.615Z,12.83
2019-05-17T03:48:33.280Z,13.17
2019-05-17T03:53:39.370Z,13.37
2019-05-17T03:58:53.318Z,13.97
2019-05-17T04:04:02.565Z,13.00
2019-05-17T04:09:13.424Z,12.53
2019-05-17T04:14:17.127Z,12.33
2019-05-17T04:19:23.598Z,12.30
2019-05-17T04:24:32.376Z,12.13
2019-05-17T04:29:38.487Z,11.93
2019-05-17T04:34:45.566Z,12.40
2019-05-17T04:39:52.619Z,11.10
2019-05-17T04:44:58.039Z,10.93
2019-05-17T04:50:04.377Z,10.77
2019-05-17T04:55:13.302Z,10.93
2019-05-17T05:00:18.507Z,10.87
2019-05-17T05:05:24.683Z,10.70
2019-05-17T05:10:33.822Z,10.73
2019-05-17T05:15:43.986Z,10.03
2019-05-17T05:20:48.515Z,9.93
2019-05-17T05:25:53.971Z,10.50
2019-05-17T05:31:01.630Z,10.20
2019-05-17T05:36:07.662Z,9.67
2019-05-17T05:41:12.797Z,9.10
2019-05-17T05:46:18.832Z,9.73
2019-05-17T05:51:24.367Z,9.30
2019-05-17T05:56:29.514Z,9.10
2019-05-17T06:06:17.762Z,8.20
2019-05-17T06:11:24.076Z,9.03
2019-05-17T06:16:32.155Z,8.33
2019-05-17T06:21:38.687Z,8.23
2019-05-17T06:26:44.497Z,8.30
2019-05-17T06:31:51.862Z,8.57
2019-05-17T06:36:57.640Z,8.17
2019-05-17T06:42:04.511Z,8.70
2019-05-17T06:47:11.972Z,7.53
2019-05-17T06:52:18.052Z,8.07
2019-05-17T06:57:23.624Z,8.33
2019-05-17T07:02:30.822Z,7.80
2019-05-17T07:07:40.383Z,8.30
2019-05-17T07:12:57.719Z,7.17
2019-05-17T07:17:54.962Z,7.87
2019-05-17T07:23:00.563Z,7.30
2019-05-17T07:28:09.758Z,7.60
2019-05-17T07:33:15.183Z,8.27
2019-05-17T07:38:20.449Z,8.17
2019-05-17T07:43:26.466Z,7.13
2019-05-17T07:48:33.495Z,7.63
2019-05-17T07:53:40.030Z,8.23
2019-05-17T07:58:45.773Z,7.73
2019-05-17T08:04:02.194Z,7.57
2019-05-17T08:09:14.039Z,7.57
2019-05-17T08:14:27.535Z,6.40
2019-05-17T08:19:26.534Z,6.13
2019-05-17T08:24:32.158Z,5.83
2019-05-17T08:29:40.414Z,5.80
2019-05-17T08:34:51.677Z,5.93
2019-05-17T08:39:57.073Z,5.80
2019-05-17T08:45:03.611Z,5.40
2019-05-17T08:50:11.208Z,5.30
2019-05-17T08:55:20.299Z,5.50
2019-05-17T09:00:26.143Z,6.33
2019-05-17T09:05:33.092Z,4.60
2019-05-17T09:10:40.724Z,5.03
2019-05-17T09:15:49.821Z,5.30
2019-05-17T09:20:57.330Z,5.50
2019-05-17T09:26:02.924Z,4.17
2019-05-17T09:31:10.366Z,4.60
2019-05-17T09:36:20.298Z,3.60
2019-05-17T09:41:29.266Z,3.83
2019-05-17T09:46:34.946Z,4.00
2019-05-17T09:51:43.471Z,3.33
2019-05-17T09:56:50.029Z,3.57
2019-05-17T10:02:00.076Z,3.50
2019-05-17T10:07:10.171Z,4.67
2019-05-17T10:12:16.718Z,4.70
2019-05-17T10:17:22.953Z,4.60
2019-05-17T10:22:30.429Z,4.60
2019-05-17T10:27:36.631Z,4.10
2019-05-17T10:32:41.921Z,4.57
2019-05-17T10:37:50.583Z,4.20
2019-05-17T10:42:56.958Z,4.57
2019-05-17T10:48:02.990Z,4.53
2019-05-17T10:53:09.996Z,4.10
2019-05-17T10:58:16.579Z,4.57
2019-05-17T11:03:22.383Z,4.07
2019-05-17T11:08:30.375Z,3.67
2019-05-17T11:13:36.244Z,3.77
2019-05-17T11:18:42.925Z,4.13
2019-05-17T11:23:49.141Z,4.30
2019-05-17T11:28:54.562Z,4.50
2019-05-17T11:34:00.634Z,4.37
2019-05-17T11:39:10.553Z,3.83
2019-05-17T11:44:16.562Z,4.10
2019-05-17T11:49:22.758Z,3.33
2019-05-17T11:54:29.971Z,3.53
2019-05-17T11:59:35.558Z,3.90
2019-05-17T12:04:41.169Z,4.07
2019-05-17T12:09:47.388Z,4.57
2019-05-17T12:14:53.600Z,4.60
2019-05-17T12:19:59.825Z,4.53
2019-05-17T12:25:07.213Z,4.63
2019-05-17T12:30:14.948Z,3.83
2019-05-17T12:35:20.806Z,4.00
2019-05-17T12:40:27.287Z,4.00
2019-05-17T12:45:35.005Z,4.00
2019-05-17T12:50:40.269Z,3.90
2019-05-17T12:55:48.051Z,3.90
2019-05-17T13:00:55.462Z,3.90
2019-05-17T13:06:01.702Z,3.50
2019-05-17T13:11:08.284Z,3.80
2019-05-17T13:16:18.892Z,3.00
2019-05-17T13:21:23.109Z,3.47
2019-05-17T13:26:28.962Z,2.73
2019-05-17T13:31:34.457Z,1.97
2019-05-17T13:36:40.221Z,1.63
2019-05-17T13:41:46.649Z,1.40
2019-05-17T13:46:52.640Z,1.13
2019-05-17T13:51:58.989Z,1.10
2019-05-17T13:57:04.971Z,1.40
2019-05-17T14:02:10.620Z,1.13
2019-05-17T14:07:16.138Z,1.07
2019-05-17T14:12:22.392Z,1.10
2019-05-17T14:17:27.876Z,1.17
2019-05-17T14:22:36.006Z,0.90
2019-05-17T14:27:41.742Z,1.00
2019-05-17T14:32:49.589Z,0.90
2019-05-17T14:37:55.877Z,0.90
2019-05-17T14:43:02.395Z,0.60
2019-05-17T14:48:08.411Z,1.20
2019-05-17T14:53:13.880Z,1.30
2019-05-17T14:58:19.383Z,1.50
2019-05-17T15:03:25.029Z,0.93
2019-05-17T15:08:34.593Z,0.70
2019-05-17T15:13:40.251Z,1.43
2019-05-17T15:18:46.458Z,1.90
2019-05-17T15:23:52.376Z,1.83
2019-05-17T15:28:58.368Z,2.00
2019-05-17T15:34:04.076Z,2.73
2019-05-17T15:39:09.853Z,2.50
2019-05-17T15:44:17.464Z,2.40
2019-05-17T15:49:27.952Z,2.60
2019-05-17T15:54:35.314Z,2.23
2019-05-17T15:59:42.852Z,2.87
2019-05-17T16:04:51.558Z,3.10
2019-05-17T16:10:08.150Z,2.60
2019-05-17T16:15:18.771Z,2.93
2019-05-17T16:20:26.987Z,2.10
2019-05-17T16:25:34.036Z,2.80
2019-05-17T16:30:39.737Z,3.70
2019-05-17T16:35:48.364Z,2.83
2019-05-17T16:40:54.180Z,3.47
2019-05-17T16:46:00.454Z,3.80
2019-05-17T16:51:09.225Z,2.77
2019-05-17T16:56:16.231Z,3.20
2019-05-17T17:01:23.575Z,3.23
2019-05-17T17:06:30.855Z,3.60
2019-05-17T17:11:37.696Z,3.57
2019-05-17T17:16:43.710Z,3.40
2019-05-17T17:21:48.819Z,3.17
2019-05-17T17:26:55.329Z,3.57
2019-05-17T17:32:01.399Z,2.80
2019-05-17T17:37:07.293Z,2.80
2019-05-17T17:42:14.011Z,2.83
2019-05-17T17:47:20.425Z,2.80
2019-05-17T17:52:26.270Z,3.00
2019-05-17T17:57:34.067Z,3.37
2019-05-17T18:02:43.600Z,2.43
2019-05-17T18:07:49.356Z,2.47
2019-05-17T18:12:55.978Z,2.10
2019-05-17T18:18:01.686Z,2.13
2019-05-17T18:23:07.686Z,2.13
2019-05-17T18:28:13.581Z,2.13
2019-05-17T18:33:21.025Z,2.20
2019-05-17T18:38:29.811Z,2.00
2019-05-17T18:43:36.488Z,2.30
2019-05-17T18:48:42.208Z,2.50
2019-05-17T18:53:50.113Z,1.93
2019-05-17T18:58:56.842Z,2.80
2019-05-17T19:04:04.309Z,3.23
2019-05-17T19:09:09.895Z,3.13
2019-05-17T19:14:16.375Z,3.27
2019-05-17T19:19:23.385Z,3.53
2019-05-17T19:24:30.033Z,3.03
2019-05-17T19:29:35.731Z,2.87
2019-05-17T19:34:41.852Z,3.00
2019-05-17T19:39:48.178Z,3.10
2019-05-17T19:44:59.155Z,3.33
2019-05-17T19:50:05.945Z,3.70
2019-05-17T19:55:13.275Z,3.40
2019-05-17T20:00:21.533Z,3.97
2019-05-17T20:05:28.603Z,3.73
2019-05-17T20:10:34.762Z,3.50
2019-05-17T20:15:41.322Z,3.73
2019-05-17T20:20:49.630Z,4.27
2019-05-17T20:25:56.940Z,3.87
2019-05-17T20:31:04.574Z,4.00
2019-05-17T20:36:11.135Z,3.93
2019-05-17T20:41:17.637Z,4.37
2019-05-17T20:46:23.684Z,5.00
2019-05-17T20:51:29.532Z,4.73
2019-05-17T20:56:37.137Z,5.13
2019-05-17T21:01:43.061Z,5.63
2019-05-17T21:06:48.717Z,5.43
2019-05-17T21:11:56.743Z,5.00
2019-05-17T21:17:03.943Z,4.93
2019-05-17T21:22:10.021Z,5.07
2019-05-17T21:27:17.293Z,5.83
2019-05-17T21:32:24.124Z,5.90
2019-05-17T21:37:31.263Z,5.40
2019-05-17T21:42:37.762Z,5.40
2019-05-17T21:47:45.088Z,5.80
2019-05-17T21:53:03.683Z,6.20
2019-05-17T21:58:10.104Z,6.20
2019-05-17T22:03:15.522Z,6.20
2019-05-17T22:08:20.699Z,6.07
2019-05-17T22:13:26.285Z,5.83
2019-05-17T22:18:33.294Z,7.27
2019-05-17T22:23:39.511Z,6.93
2019-05-17T22:28:45.835Z,6.37
2019-05-17T22:33:54.259Z,5.97
2019-05-17T22:39:00.562Z,6.77
2019-05-17T22:44:08.441Z,6.07
2019-05-17T22:49:14.574Z,6.23
2019-05-17T22:54:20.687Z,6.57
2019-05-17T22:59:27.233Z,5.93
2019-05-17T23:04:33.249Z,6.87
2019-05-17T23:09:38.800Z,7.30
2019-05-17T23:14:44.787Z,7.40
2019-05-17T23:19:51.174Z,7.67
2019-05-17T23:24:58.537Z,6.93
2019-05-17T23:30:04.718Z,7.40
2019-05-17T23:35:11.082Z,7.83
2019-05-17T23:40:16.742Z,7.23
2019-05-17T23:45:23.236Z,7.77
2019-05-17T23:50:30.355Z,7.67
2019-05-17T23:55:36.229Z,7.90
